createdAt,value
2023-02-06T00:00:53.277Z,103319.19
2023-02-06T00:03:39.641Z,103326.53
2023-02-06T00:06:06.204Z,103316.03
2023-02-06T00:08:33.805Z,103320.47
2023-02-06T00:11:06.614Z,103308.09
2023-02-06T00:13:34.700Z,103316.75
2023-02-06T00:16:01.869Z,103315.66
2023-02-06T00:18:28.604Z,103315.63
2023-02-06T00:20:54.846Z,103310.53
2023-02-06T00:23:21.424Z,103306.13
2023-02-06T00:25:47.601Z,103298.97
2023-02-06T00:28:14.288Z,103293.69
2023-02-06T00:30:40.522Z,103310.50
2023-02-06T00:33:07.061Z,103309.66
2023-02-06T00:35:34.121Z,103302.56
2023-02-06T00:38:01.720Z,103313.13
2023-02-06T00:40:28.580Z,103308.00
2023-02-06T00:42:55.060Z,103308.91
2023-02-06T00:45:21.304Z,103306.34
2023-02-06T00:47:47.775Z,103297.47
2023-02-06T00:50:14.966Z,103298.41
2023-02-06T00:52:43.014Z,103311.56
2023-02-06T00:55:10.266Z,103308.88
2023-02-06T00:57:36.739Z,103301.84
2023-02-06T01:00:07.989Z,103302.44
2023-02-06T01:02:35.268Z,103300.25
2023-02-06T01:05:01.866Z,103306.41
2023-02-06T01:07:28.571Z,103305.41
2023-02-06T01:09:54.720Z,103302.59
2023-02-06T01:12:21.154Z,103307.72
2023-02-06T01:14:47.307Z,103293.94
2023-02-06T01:17:13.785Z,103291.53
2023-02-06T01:19:40.161Z,103287.91
2023-02-06T01:22:06.849Z,103305.63
2023-02-06T01:24:33.044Z,103301.22
2023-02-06T01:26:59.678Z,103278.84
2023-02-06T01:29:25.945Z,103300.72
2023-02-06T01:31:52.341Z,103299.94
2023-02-06T01:34:18.739Z,103301.53
2023-02-06T01:36:45.312Z,103303.59
2023-02-06T01:39:11.457Z,103315.41
2023-02-06T01:41:38.200Z,103312.75
2023-02-06T01:44:14.122Z,103316.22
2023-02-06T01:46:42.824Z,103302.00
2023-02-06T01:49:14.764Z,103306.44
2023-02-06T01:51:41.787Z,103303.03
2023-02-06T01:54:08.778Z,103308.41
2023-02-06T01:56:49.170Z,103297.78
2023-02-06T01:59:15.487Z,103301.41
2023-02-06T02:01:42.612Z,103299.56
2023-02-06T02:04:16.699Z,103296.00
2023-02-06T02:06:49.641Z,103288.06
2023-02-06T02:09:17.740Z,103289.81
2023-02-06T02:11:44.188Z,103295.16
2023-02-06T02:14:14.334Z,103281.00
2023-02-06T02:16:56.814Z,103289.84
2023-02-06T02:20:02.658Z,103277.44
2023-02-06T02:22:54.421Z,103273.00
2023-02-06T02:26:02.235Z,103267.69
2023-02-06T02:29:22.942Z,103262.31
2023-02-06T02:31:57.474Z,103260.38
2023-02-06T02:34:45.737Z,103255.03
2023-02-06T02:37:38.575Z,103246.97
2023-02-06T02:40:24.399Z,103240.84
2023-02-06T02:43:09.715Z,103234.66
2023-02-06T02:45:59.060Z,103237.88
2023-02-06T02:48:33.414Z,103238.91
2023-02-06T02:51:01.432Z,103237.22
2023-02-06T02:53:27.754Z,103224.78
2023-02-06T02:55:54.433Z,103234.75
2023-02-06T02:58:28.207Z,103211.69
2023-02-06T03:01:00.660Z,103213.16
2023-02-06T03:03:28.995Z,103216.22
2023-02-06T03:06:07.125Z,103209.50
2023-02-06T03:08:39.469Z,103205.41
2023-02-06T03:11:19.404Z,103204.56
2023-02-06T03:13:52.991Z,103198.66
2023-02-06T03:16:40.846Z,103204.97
2023-02-06T03:19:14.398Z,103203.38
2023-02-06T03:21:42.147Z,103198.94
2023-02-06T03:24:16.504Z,103209.69
2023-02-06T03:26:44.427Z,103210.63
2023-02-06T03:29:15.235Z,103222.84
2023-02-06T03:31:48.895Z,103211.47
2023-02-06T03:34:51.235Z,103214.09
2023-02-06T03:37:20.491Z,103214.13
2023-02-06T03:39:46.682Z,103208.66
2023-02-06T03:42:15.255Z,103212.03
2023-02-06T03:44:46.067Z,103208.47
2023-02-06T03:47:15.281Z,103207.47
2023-02-06T03:49:43.162Z,103211.06
2023-02-06T03:52:14.092Z,103209.81
2023-02-06T03:54:49.527Z,103203.78
2023-02-06T03:57:18.678Z,103194.06
2023-02-06T03:59:45.933Z,103201.38
2023-02-06T04:02:14.217Z,103202.25
2023-02-06T04:04:41.725Z,103198.91
2023-02-06T04:07:16.283Z,103198.00
2023-02-06T04:09:42.821Z,103202.44
2023-02-06T04:12:09.361Z,103204.38
2023-02-06T04:14:36.160Z,103201.84
2023-02-06T04:17:06.535Z,103211.72
2023-02-06T04:19:33.876Z,103207.22
2023-02-06T04:22:00.537Z,103214.31
2023-02-06T04:24:27.692Z,103213.38
2023-02-06T04:26:54.835Z,103213.38
2023-02-06T04:29:20.943Z,103216.91
2023-02-06T04:31:47.316Z,103213.41
2023-02-06T04:34:13.768Z,103209.72
2023-02-06T04:36:40.211Z,103214.19
2023-02-06T04:39:06.680Z,103224.84
2023-02-06T04:41:33.269Z,103225.84
2023-02-06T04:43:59.827Z,103220.44
2023-02-06T04:46:26.568Z,103213.25
2023-02-06T04:48:52.738Z,103209.72
2023-02-06T04:51:19.351Z,103213.66
2023-02-06T04:53:45.457Z,103204.84
2023-02-06T04:56:12.610Z,103202.44
2023-02-06T04:58:39.834Z,103203.41
2023-02-06T05:01:06.427Z,103196.28
2023-02-06T05:03:33.668Z,103199.88
2023-02-06T05:06:01.335Z,103191.94
2023-02-06T05:08:28.080Z,103194.56
2023-02-06T05:10:55.832Z,103202.50
2023-02-06T05:13:23.080Z,103198.19
2023-02-06T05:15:49.826Z,103197.88
2023-02-06T05:18:16.081Z,103205.06
2023-02-06T05:20:43.219Z,103210.41
2023-02-06T05:23:09.729Z,103208.09
2023-02-06T05:25:36.974Z,103205.44
2023-02-06T05:28:05.966Z,103199.44
2023-02-06T05:30:33.803Z,103194.84
2023-02-06T05:33:00.096Z,103200.72
2023-02-06T05:35:26.545Z,103196.97
2023-02-06T05:37:52.710Z,103204.00
2023-02-06T05:40:19.163Z,103199.84
2023-02-06T05:42:45.267Z,103207.47
2023-02-06T05:45:11.767Z,103202.13
2023-02-06T05:47:37.941Z,103203.56
2023-02-06T05:50:04.765Z,103205.44
2023-02-06T05:52:31.006Z,103194.81
2023-02-06T05:54:57.541Z,103188.56
2023-02-06T05:57:23.686Z,103197.22
2023-02-06T05:59:50.225Z,103203.97
2023-02-06T06:02:16.801Z,103207.34
2023-02-06T06:04:43.400Z,103210.88
2023-02-06T06:07:10.025Z,103207.34
2023-02-06T06:09:36.580Z,103200.69
2023-02-06T06:12:03.204Z,103207.75
2023-02-06T06:14:29.713Z,103205.28
2023-02-06T06:16:55.850Z,103215.13
2023-02-06T06:19:22.472Z,103218.78
2023-02-06T06:21:48.691Z,103233.41
2023-02-06T06:24:15.182Z,103231.34
2023-02-06T06:26:41.677Z,103235.31
2023-02-06T06:29:08.169Z,103240.41
2023-02-06T06:31:34.311Z,103238.97
2023-02-06T06:34:01.081Z,103239.81
2023-02-06T06:36:27.404Z,103245.03
2023-02-06T06:38:53.898Z,103252.69
2023-02-06T06:41:20.083Z,103259.47
2023-02-06T06:43:46.582Z,103258.56
2023-02-06T06:46:12.721Z,103254.53
2023-02-06T06:48:39.680Z,103254.91
2023-02-06T06:51:06.481Z,103258.00
2023-02-06T06:53:33.004Z,103261.66
2023-02-06T06:56:03.942Z,103270.56
2023-02-06T06:58:30.503Z,103278.56
2023-02-06T07:00:56.704Z,103278.50
2023-02-06T07:03:23.317Z,103274.81
2023-02-06T07:05:50.759Z,103267.66
2023-02-06T07:08:18.671Z,103276.31
2023-02-06T07:10:46.248Z,103273.16
2023-02-06T07:13:14.724Z,103275.56
2023-02-06T07:15:42.858Z,103278.00
2023-02-06T07:18:11.428Z,103276.84
2023-02-06T07:20:38.060Z,103279.00
2023-02-06T07:23:05.236Z,103278.31
2023-02-06T07:25:32.271Z,103277.50
2023-02-06T07:27:58.951Z,103282.03
2023-02-06T07:30:25.200Z,103286.63
2023-02-06T07:32:51.651Z,103296.41
2023-02-06T07:35:18.037Z,103292.41
2023-02-06T07:37:44.662Z,103300.69
2023-02-06T07:40:11.539Z,103303.19
2023-02-06T07:42:39.722Z,103307.66
2023-02-06T07:45:18.087Z,103308.09
2023-02-06T07:47:45.032Z,103318.78
2023-02-06T07:50:11.665Z,103320.88
2023-02-06T07:52:38.259Z,103316.81
2023-02-06T07:55:04.763Z,103314.03
2023-02-06T07:57:31.509Z,103308.47
2023-02-06T07:59:57.649Z,103319.13
2023-02-06T08:02:24.270Z,103318.03
2023-02-06T08:04:50.487Z,103307.53
2023-02-06T08:07:17.820Z,103305.56
2023-02-06T08:09:44.335Z,103300.97
2023-02-06T08:12:12.046Z,103297.47
2023-02-06T08:14:38.471Z,103287.66
2023-02-06T08:17:05.033Z,103287.56
2023-02-06T08:19:31.447Z,103284.69
2023-02-06T08:21:58.152Z,103288.88
2023-02-06T08:24:25.347Z,103287.34
2023-02-06T08:26:52.224Z,103288.44
2023-02-06T08:29:18.756Z,103277.47
2023-02-06T08:31:45.334Z,103274.84
2023-02-06T08:34:14.269Z,103276.31
2023-02-06T08:36:43.358Z,103276.94
2023-02-06T08:39:14.451Z,103279.38
2023-02-06T08:41:43.243Z,103273.63
2023-02-06T08:44:15.413Z,103272.63
2023-02-06T08:46:44.031Z,103274.28
2023-02-06T08:49:13.449Z,103282.28
2023-02-06T08:51:40.427Z,103277.06
2023-02-06T08:54:10.586Z,103288.53
2023-02-06T08:56:37.566Z,103292.22
2023-02-06T08:59:05.928Z,103287.66
2023-02-06T09:01:34.623Z,103292.41
2023-02-06T09:04:03.411Z,103300.59
2023-02-06T09:06:29.877Z,103304.38
2023-02-06T09:08:56.782Z,103305.88
2023-02-06T09:11:24.785Z,103318.03
2023-02-06T09:13:57.261Z,103307.81
2023-02-06T09:16:24.973Z,103314.38
2023-02-06T09:18:54.109Z,103323.50
2023-02-06T09:21:25.576Z,103310.91
2023-02-06T09:23:54.943Z,103300.59
2023-02-06T09:26:23.948Z,103294.94
2023-02-06T09:28:55.906Z,103294.78
2023-02-06T09:31:24.265Z,103285.38
2023-02-06T09:33:50.711Z,103270.22
2023-02-06T09:36:19.770Z,103281.72
2023-02-06T09:38:49.586Z,103276.34
2023-02-06T09:41:31.023Z,103301.13
2023-02-06T09:44:13.288Z,103300.75
2023-02-06T09:47:04.478Z,103304.88
2023-02-06T09:49:48.411Z,103306.09
2023-02-06T09:52:21.060Z,103314.22
2023-02-06T09:55:00.197Z,103308.69
2023-02-06T09:57:45.568Z,103310.25
2023-02-06T10:00:23.806Z,103312.78
2023-02-06T10:02:50.821Z,103301.22
2023-02-06T10:05:37.120Z,103298.84
2023-02-06T10:08:24.877Z,103310.94
2023-02-06T10:10:55.481Z,103320.88
2023-02-06T10:13:34.486Z,103324.56
2023-02-06T10:16:07.417Z,103336.56
2023-02-06T10:18:39.861Z,103323.75
2023-02-06T10:21:19.047Z,103310.53
2023-02-06T10:24:18.950Z,103303.91
2023-02-06T10:26:47.357Z,103292.50
2023-02-06T10:29:35.662Z,103296.91
2023-02-06T10:32:15.691Z,103287.06
2023-02-06T10:35:05.280Z,103284.47
2023-02-06T10:38:06.604Z,103291.13
2023-02-06T10:40:39.608Z,103293.06
2023-02-06T10:43:39.759Z,103289.22
2023-02-06T10:46:22.431Z,103285.22
2023-02-06T10:49:18.005Z,103285.22
2023-02-06T10:51:48.514Z,103284.03
2023-02-06T10:54:22.233Z,103282.41
2023-02-06T10:56:52.014Z,103278.94
2023-02-06T10:59:44.278Z,103274.34
2023-02-06T11:03:08.035Z,103274.34
2023-02-06T11:05:35.313Z,103281.06
2023-02-06T11:08:23.410Z,103277.28
2023-02-06T11:10:50.663Z,103274.53
2023-02-06T11:13:34.671Z,103272.63
2023-02-06T11:16:02.321Z,103269.31
2023-02-06T11:18:35.374Z,103272.75
2023-02-06T11:21:02.349Z,103275.28
2023-02-06T11:23:30.834Z,103272.34
2023-02-06T11:26:26.418Z,103272.97
2023-02-06T11:29:01.699Z,103269.88
2023-02-06T11:31:40.269Z,103273.09
2023-02-06T11:34:35.349Z,103279.28
2023-02-06T11:37:23.321Z,103274.28
2023-02-06T11:39:49.949Z,103282.28
2023-02-06T11:42:27.709Z,103291.63
2023-02-06T11:44:54.173Z,103297.09
2023-02-06T11:47:31.575Z,103298.81
2023-02-06T11:50:34.517Z,103309.66
2023-02-06T11:53:17.526Z,103301.78
2023-02-06T11:55:45.987Z,103307.03
2023-02-06T11:58:12.203Z,103301.66
2023-02-06T12:00:54.011Z,103295.41
2023-02-06T12:03:31.230Z,103301.19
2023-02-06T12:06:03.518Z,103294.97
2023-02-06T12:08:42.423Z,103296.78
2023-02-06T12:11:19.358Z,103301.34
2023-02-06T12:13:52.897Z,103297.56
2023-02-06T12:16:21.040Z,103289.53
2023-02-06T12:18:51.892Z,103284.03
2023-02-06T12:22:03.994Z,103272.03
2023-02-06T12:24:41.619Z,103268.53
2023-02-06T12:27:20.273Z,103270.84
2023-02-06T12:30:01.774Z,103267.16
2023-02-06T12:32:38.057Z,103270.84
2023-02-06T12:35:31.156Z,103258.53
2023-02-06T12:38:04.382Z,103254.19
2023-02-06T12:40:37.583Z,103246.84
2023-02-06T12:43:10.962Z,103245.78
2023-02-06T12:46:00.566Z,103240.31
2023-02-06T12:48:46.009Z,103243.78
2023-02-06T12:51:18.643Z,103240.50
2023-02-06T12:53:52.091Z,103235.97
2023-02-06T12:56:30.230Z,103238.00
2023-02-06T12:59:06.193Z,103242.63
2023-02-06T13:01:44.920Z,103243.31
2023-02-06T13:04:22.885Z,103244.91
2023-02-06T13:07:10.441Z,103233.47
2023-02-06T13:09:46.126Z,103237.00
2023-02-06T13:12:22.318Z,103236.72
2023-02-06T13:14:53.615Z,103233.00
2023-02-06T13:17:24.280Z,103233.31
2023-02-06T13:20:00.953Z,103244.88
2023-02-06T13:22:33.924Z,103250.03
2023-02-06T13:25:24.507Z,103253.91
2023-02-06T13:27:52.644Z,103254.16
2023-02-06T13:30:28.141Z,103252.31
2023-02-06T13:33:08.653Z,103256.56
2023-02-06T13:35:54.115Z,103254.19
2023-02-06T13:38:23.363Z,103267.06
2023-02-06T13:41:14.699Z,103263.28
2023-02-06T13:43:56.982Z,103255.22
2023-02-06T13:47:00.953Z,103261.53
2023-02-06T13:49:56.686Z,103263.75
2023-02-06T13:52:34.799Z,103257.16
2023-02-06T13:55:30.046Z,103259.75
2023-02-06T13:58:26.231Z,103261.59
2023-02-06T14:00:55.386Z,103258.84
2023-02-06T14:03:25.670Z,103266.03
2023-02-06T14:06:04.528Z,103275.78
2023-02-06T14:08:37.556Z,103271.00
2023-02-06T14:11:13.301Z,103264.59
2023-02-06T14:13:39.927Z,103274.31
2023-02-06T14:16:09.600Z,103278.66
2023-02-06T14:19:09.386Z,103284.34
2023-02-06T14:21:58.473Z,103280.91
2023-02-06T14:24:32.870Z,103277.97
2023-02-06T14:27:17.252Z,103280.16
2023-02-06T14:30:02.191Z,103286.41
2023-02-06T14:32:37.568Z,103278.69
2023-02-06T14:35:32.195Z,103294.97
2023-02-06T14:38:17.207Z,103306.06
2023-02-06T14:40:49.403Z,103306.53
2023-02-06T14:43:22.943Z,103316.44
2023-02-06T14:46:05.955Z,103310.59
2023-02-06T14:48:49.740Z,103324.78
2023-02-06T14:51:38.217Z,103322.72
2023-02-06T14:54:07.284Z,103317.97
2023-02-06T14:56:38.302Z,103334.06
2023-02-06T14:59:15.625Z,103334.94
2023-02-06T15:01:45.748Z,103339.34
2023-02-06T15:04:14.022Z,103338.72
2023-02-06T15:06:44.230Z,103336.88
2023-02-06T15:09:35.635Z,103342.59
2023-02-06T15:12:17.042Z,103337.94
2023-02-06T15:14:52.821Z,103348.72
2023-02-06T15:17:21.328Z,103338.91
2023-02-06T15:19:47.869Z,103349.63
2023-02-06T15:22:20.461Z,103351.56
2023-02-06T15:25:04.907Z,103359.91
2023-02-06T15:27:34.495Z,103360.19
2023-02-06T15:30:11.832Z,103363.03
2023-02-06T15:32:39.499Z,103365.22
2023-02-06T15:35:20.118Z,103368.00
2023-02-06T15:37:46.875Z,103362.00
2023-02-06T15:40:13.446Z,103371.88
2023-02-06T15:42:40.937Z,103369.28
2023-02-06T15:45:24.731Z,103374.88
2023-02-06T15:47:53.885Z,103366.09
2023-02-06T15:50:23.563Z,103379.56
2023-02-06T15:52:50.707Z,103377.91
2023-02-06T15:55:31.050Z,103376.38
2023-02-06T15:57:59.944Z,103386.28
2023-02-06T16:00:30.935Z,103385.50
2023-02-06T16:03:04.518Z,103384.09
2023-02-06T16:05:41.388Z,103395.94
2023-02-06T16:08:24.979Z,103394.97
2023-02-06T16:11:05.011Z,103401.06
2023-02-06T16:13:32.561Z,103397.41
2023-02-06T16:16:11.179Z,103401.19
2023-02-06T16:18:41.039Z,103403.91
2023-02-06T16:21:16.558Z,103413.66
2023-02-06T16:24:11.680Z,103405.66
2023-02-06T16:26:41.078Z,103413.72
2023-02-06T16:29:07.614Z,103408.59
2023-02-06T16:31:36.255Z,103410.47
2023-02-06T16:34:30.915Z,103414.00
2023-02-06T16:36:57.031Z,103411.53
2023-02-06T16:39:23.770Z,103421.16
2023-02-06T16:41:52.029Z,103418.47
2023-02-06T16:44:19.168Z,103424.63
2023-02-06T16:46:48.456Z,103423.97
2023-02-06T16:49:18.794Z,103431.09
2023-02-06T16:51:46.893Z,103422.53
2023-02-06T16:54:28.690Z,103436.03
2023-02-06T16:57:00.876Z,103428.19
2023-02-06T16:59:27.542Z,103432.84
2023-02-06T17:01:54.819Z,103444.03
2023-02-06T17:04:21.688Z,103442.66
2023-02-06T17:06:48.310Z,103436.56
2023-02-06T17:09:17.365Z,103439.06
2023-02-06T17:11:44.072Z,103439.84
2023-02-06T17:14:11.629Z,103444.03
2023-02-06T17:16:38.116Z,103433.06
2023-02-06T17:19:05.320Z,103427.00
2023-02-06T17:21:32.403Z,103434.75
2023-02-06T17:23:59.569Z,103439.63
2023-02-06T17:26:25.980Z,103448.41
2023-02-06T17:28:52.793Z,103452.19
2023-02-06T17:31:19.280Z,103439.06
2023-02-06T17:33:46.118Z,103436.94
2023-02-06T17:36:21.924Z,103433.44
2023-02-06T17:38:48.962Z,103441.66
2023-02-06T17:41:15.092Z,103431.31
2023-02-06T17:43:41.674Z,103434.63
2023-02-06T17:46:09.948Z,103431.66
2023-02-06T17:48:41.969Z,103426.09
2023-02-06T17:51:09.099Z,103430.28
2023-02-06T17:53:36.015Z,103429.06
2023-02-06T17:56:14.390Z,103431.81
2023-02-06T17:58:42.915Z,103437.75
2023-02-06T18:01:14.363Z,103429.63
2023-02-06T18:03:41.819Z,103417.28
2023-02-06T18:06:08.784Z,103415.88
2023-02-06T18:08:35.749Z,103435.91
2023-02-06T18:11:13.002Z,103442.13
2023-02-06T18:13:41.835Z,103459.72
2023-02-06T18:16:14.288Z,103461.47
2023-02-06T18:18:41.484Z,103461.13
2023-02-06T18:21:07.864Z,103478.91
2023-02-06T18:23:34.789Z,103481.16
2023-02-06T18:26:03.973Z,103488.72
2023-02-06T18:28:31.457Z,103489.41
2023-02-06T18:31:01.419Z,103488.97
2023-02-06T18:33:30.067Z,103487.81
2023-02-06T18:35:56.679Z,103484.38
2023-02-06T18:38:24.023Z,103481.88
2023-02-06T18:40:50.586Z,103486.38
2023-02-06T18:43:17.553Z,103484.63
2023-02-06T18:45:44.014Z,103485.53
2023-02-06T18:48:12.518Z,103486.44
2023-02-06T18:50:41.483Z,103482.66
2023-02-06T18:53:08.951Z,103479.88
2023-02-06T18:55:36.553Z,103484.81
2023-02-06T18:58:05.405Z,103500.06
2023-02-06T19:00:37.141Z,103490.50
2023-02-06T19:03:04.522Z,103491.47
2023-02-06T19:05:35.492Z,103501.22
2023-02-06T19:08:02.467Z,103500.34
2023-02-06T19:10:31.489Z,103496.00
2023-02-06T19:12:58.553Z,103500.72
2023-02-06T19:15:25.027Z,103495.38
2023-02-06T19:17:51.955Z,103496.03
2023-02-06T19:20:19.528Z,103502.41
2023-02-06T19:22:46.651Z,103492.13
2023-02-06T19:25:14.713Z,103494.28
2023-02-06T19:27:41.787Z,103504.22
2023-02-06T19:30:08.787Z,103497.00
2023-02-06T19:32:35.587Z,103492.81
2023-02-06T19:35:03.409Z,103497.41
2023-02-06T19:37:30.798Z,103480.00
2023-02-06T19:39:57.315Z,103463.09
2023-02-06T19:42:24.359Z,103464.00
2023-02-06T19:44:53.857Z,103463.31
2023-02-06T19:47:21.331Z,103453.91
2023-02-06T19:49:55.423Z,103473.72
2023-02-06T19:52:22.506Z,103479.06
2023-02-06T19:54:49.371Z,103471.38
2023-02-06T19:57:18.653Z,103495.78
2023-02-06T19:59:46.228Z,103500.53
2023-02-06T20:02:15.055Z,103512.19
2023-02-06T20:04:41.708Z,103505.31
2023-02-06T20:07:08.596Z,103499.34
2023-02-06T20:09:35.857Z,103489.56
2023-02-06T20:12:03.031Z,103504.69
2023-02-06T20:14:30.304Z,103510.06
2023-02-06T20:16:57.232Z,103504.13
2023-02-06T20:19:27.022Z,103503.19
2023-02-06T20:21:58.633Z,103508.00
2023-02-06T20:24:30.073Z,103509.81
2023-02-06T20:27:00.264Z,103516.75
2023-02-06T20:29:33.119Z,103515.81
2023-02-06T20:32:00.739Z,103522.06
2023-02-06T20:34:28.732Z,103519.56
2023-02-06T20:36:56.813Z,103522.13
2023-02-06T20:39:25.066Z,103525.72
2023-02-06T20:41:52.821Z,103516.88
2023-02-06T20:44:20.231Z,103513.50
2023-02-06T20:46:47.480Z,103522.59
2023-02-06T20:49:20.794Z,103517.56
2023-02-06T20:51:48.852Z,103505.78
2023-02-06T20:54:17.138Z,103517.72
2023-02-06T20:56:45.714Z,103525.63
2023-02-06T20:59:14.188Z,103528.56
2023-02-06T21:01:41.499Z,103525.41
2023-02-06T21:04:11.023Z,103529.94
2023-02-06T21:06:38.534Z,103522.59
2023-02-06T21:09:06.617Z,103511.59
2023-02-06T21:11:38.340Z,103503.47
2023-02-06T21:14:06.013Z,103497.34
2023-02-06T21:16:34.655Z,103493.69
2023-02-06T21:19:02.022Z,103491.03
2023-02-06T21:21:28.899Z,103494.06
2023-02-06T21:23:55.318Z,103491.63
2023-02-06T21:26:23.061Z,103489.22
2023-02-06T21:28:50.224Z,103500.97
2023-02-06T21:31:37.478Z,103503.81
2023-02-06T21:34:14.993Z,103503.19
2023-02-06T21:36:42.385Z,103505.03
2023-02-06T21:39:10.654Z,103501.88
2023-02-06T21:41:37.522Z,103502.91
2023-02-06T21:44:04.204Z,103518.13
2023-02-06T21:46:30.997Z,103522.44
2023-02-06T21:48:58.138Z,103525.13
2023-02-06T21:51:25.451Z,103528.41
2023-02-06T21:53:51.978Z,103528.78
2023-02-06T21:56:26.636Z,103522.22
2023-02-06T21:58:53.717Z,103517.25
2023-02-06T22:01:24.266Z,103529.66
2023-02-06T22:03:51.600Z,103528.88
2023-02-06T22:06:19.471Z,103526.19
2023-02-06T22:08:51.208Z,103530.78
2023-02-06T22:11:29.402Z,103536.16
2023-02-06T22:14:05.939Z,103530.81
2023-02-06T22:16:33.860Z,103521.06
2023-02-06T22:19:00.140Z,103527.06
2023-02-06T22:21:29.020Z,103531.50
2023-02-06T22:23:57.955Z,103551.91
2023-02-06T22:26:26.091Z,103559.16
2023-02-06T22:28:52.852Z,103547.59
2023-02-06T22:31:25.639Z,103545.69
2023-02-06T22:33:52.908Z,103561.84
2023-02-06T22:36:22.191Z,103556.59
2023-02-06T22:38:54.421Z,103566.34
2023-02-06T22:41:21.048Z,103576.84
2023-02-06T22:43:49.299Z,103576.81
2023-02-06T22:46:27.955Z,103582.16
2023-02-06T22:48:54.539Z,103579.38
2023-02-06T22:51:21.799Z,103591.09
2023-02-06T22:53:48.662Z,103584.91
2023-02-06T22:56:27.229Z,103589.41
2023-02-06T22:59:01.444Z,103584.09
2023-02-06T23:01:42.573Z,103589.44
2023-02-06T23:04:23.349Z,103589.44
2023-02-06T23:06:50.783Z,103581.41
2023-02-06T23:09:25.907Z,103583.25
2023-02-06T23:11:53.864Z,103578.81
2023-02-06T23:14:20.529Z,103579.72
2023-02-06T23:16:47.710Z,103571.69
2023-02-06T23:19:15.058Z,103574.34
2023-02-06T23:21:42.482Z,103565.31
2023-02-06T23:24:09.492Z,103559.25
2023-02-06T23:26:37.141Z,103557.53
2023-02-06T23:29:06.494Z,103561.09
2023-02-06T23:31:34.252Z,103554.91
2023-02-06T23:34:00.662Z,103558.47
2023-02-06T23:36:27.958Z,103553.16
2023-02-06T23:38:54.330Z,103548.41
2023-02-06T23:41:25.448Z,103566.81
2023-02-06T23:43:56.863Z,103565.31
2023-02-06T23:46:24.373Z,103578.72
2023-02-06T23:48:51.273Z,103567.31
2023-02-06T23:51:18.760Z,103567.31
2023-02-06T23:53:44.901Z,103571.75
2023-02-06T23:56:13.171Z,103583.06
2023-02-06T23:58:40.004Z,103587.66
